sensor_id;sensor_type;location;lat;lon;timestamp;P1;durP1;ratioP1;P2;durP2;ratioP2
39218;SDS011;24934;52.752;6.964;2023-08-24T00:00:41;14.90;;;13.20;;
39218;SDS011;24934;52.752;6.964;2023-08-24T00:03:08;14.23;;;12.82;;
39218;SDS011;24934;52.752;6.964;2023-08-24T00:05:34;15.93;;;14.13;;
39218;SDS011;24934;52.752;6.964;2023-08-24T00:08:07;18.83;;;14.32;;
39218;SDS011;24934;52.752;6.964;2023-08-24T00:10:36;17.70;;;14.07;;
39218;SDS011;24934;52.752;6.964;2023-08-24T00:13:05;17.88;;;14.10;;
39218;SDS011;24934;52.752;6.964;2023-08-24T00:15:32;19.13;;;14.25;;
39218;SDS011;24934;52.752;6.964;2023-08-24T00:17:57;16.02;;;14.30;;
39218;SDS011;24934;52.752;6.964;2023-08-24T00:20:23;15.95;;;14.13;;
39218;SDS011;24934;52.752;6.964;2023-08-24T00:22:52;18.73;;;15.32;;
39218;SDS011;24934;52.752;6.964;2023-08-24T00:25:18;17.52;;;15.60;;
39218;SDS011;24934;52.752;6.964;2023-08-24T00:27:43;18.63;;;16.73;;
39218;SDS011;24934;52.752;6.964;2023-08-24T00:30:09;19.80;;;15.32;;
39218;SDS011;24934;52.752;6.964;2023-08-24T00:32:36;17.85;;;15.95;;
39218;SDS011;24934;52.752;6.964;2023-08-24T00:35:03;17.10;;;15.38;;
39218;SDS011;24934;52.752;6.964;2023-08-24T00:37:34;17.13;;;15.23;;
39218;SDS011;24934;52.752;6.964;2023-08-24T00:40:00;21.50;;;16.20;;
39218;SDS011;24934;52.752;6.964;2023-08-24T00:42:30;18.45;;;16.02;;
39218;SDS011;24934;52.752;6.964;2023-08-24T00:44:57;18.10;;;16.20;;
39218;SDS011;24934;52.752;6.964;2023-08-24T00:47:23;19.38;;;16.30;;
39218;SDS011;24934;52.752;6.964;2023-08-24T00:49:52;18.17;;;15.93;;
39218;SDS011;24934;52.752;6.964;2023-08-24T00:52:18;22.48;;;17.20;;
39218;SDS011;24934;52.752;6.964;2023-08-24T00:54:44;21.77;;;16.55;;
39218;SDS011;24934;52.752;6.964;2023-08-24T00:57:10;18.13;;;16.20;;
39218;SDS011;24934;52.752;6.964;2023-08-24T00:59:36;17.85;;;15.95;;
39218;SDS011;24934;52.752;6.964;2023-08-24T01:02:02;18.73;;;16.52;;
39218;SDS011;24934;52.752;6.964;2023-08-24T01:04:30;20.02;;;17.27;;
39218;SDS011;24934;52.752;6.964;2023-08-24T01:06:56;19.63;;;16.67;;
39218;SDS011;24934;52.752;6.964;2023-08-24T01:09:24;20.90;;;17.38;;
39218;SDS011;24934;52.752;6.964;2023-08-24T01:11:58;19.85;;;17.75;;
39218;SDS011;24934;52.752;6.964;2023-08-24T01:17:50;20.52;;;17.60;;
39218;SDS011;24934;52.752;6.964;2023-08-24T01:20:20;18.73;;;16.92;;
39218;SDS011;24934;52.752;6.964;2023-08-24T01:22:49;21.38;;;17.30;;
39218;SDS011;24934;52.752;6.964;2023-08-24T01:27:59;20.27;;;18.15;;
39218;SDS011;24934;52.752;6.964;2023-08-24T01:30:27;21.45;;;19.35;;
39218;SDS011;24934;52.752;6.964;2023-08-24T01:32:54;22.75;;;19.15;;
39218;SDS011;24934;52.752;6.964;2023-08-24T01:35:19;20.85;;;18.15;;
39218;SDS011;24934;52.752;6.964;2023-08-24T01:37:45;23.65;;;18.70;;
39218;SDS011;24934;52.752;6.964;2023-08-24T01:42:43;23.20;;;18.48;;
39218;SDS011;24934;52.752;6.964;2023-08-24T01:45:15;22.98;;;17.75;;
39218;SDS011;24934;52.752;6.964;2023-08-24T01:47:45;19.35;;;17.20;;
39218;SDS011;24934;52.752;6.964;2023-08-24T01:50:13;20.63;;;16.90;;
39218;SDS011;24934;52.752;6.964;2023-08-24T01:52:39;19.92;;;17.70;;
39218;SDS011;24934;52.752;6.964;2023-08-24T01:55:09;19.80;;;17.90;;
39218;SDS011;24934;52.752;6.964;2023-08-24T01:57:36;18.90;;;15.85;;
39218;SDS011;24934;52.752;6.964;2023-08-24T02:00:03;19.20;;;17.17;;
39218;SDS011;24934;52.752;6.964;2023-08-24T02:02:35;20.40;;;18.27;;
39218;SDS011;24934;52.752;6.964;2023-08-24T02:05:02;19.02;;;17.05;;
39218;SDS011;24934;52.752;6.964;2023-08-24T02:07:28;20.85;;;18.83;;
39218;SDS011;24934;52.752;6.964;2023-08-24T02:09:54;19.95;;;17.80;;
39218;SDS011;24934;52.752;6.964;2023-08-24T02:12:19;20.23;;;18.10;;
39218;SDS011;24934;52.752;6.964;2023-08-24T02:14:45;20.65;;;18.42;;
39218;SDS011;24934;52.752;6.964;2023-08-24T02:17:11;19.45;;;17.55;;
39218;SDS011;24934;52.752;6.964;2023-08-24T02:19:36;20.77;;;18.35;;
39218;SDS011;24934;52.752;6.964;2023-08-24T02:22:02;22.08;;;19.88;;
39218;SDS011;24934;52.752;6.964;2023-08-24T02:24:28;21.20;;;18.92;;
39218;SDS011;24934;52.752;6.964;2023-08-24T02:26:53;20.30;;;18.17;;
39218;SDS011;24934;52.752;6.964;2023-08-24T02:29:19;26.08;;;18.83;;
39218;SDS011;24934;52.752;6.964;2023-08-24T02:31:44;22.13;;;19.98;;
39218;SDS011;24934;52.752;6.964;2023-08-24T02:34:13;22.02;;;19.15;;
39218;SDS011;24934;52.752;6.964;2023-08-24T02:36:40;22.40;;;20.10;;
39218;SDS011;24934;52.752;6.964;2023-08-24T02:39:06;22.08;;;18.73;;
39218;SDS011;24934;52.752;6.964;2023-08-24T02:41:33;21.50;;;19.23;;
39218;SDS011;24934;52.752;6.964;2023-08-24T02:44:02;22.48;;;19.17;;
39218;SDS011;24934;52.752;6.964;2023-08-24T02:46:28;21.35;;;19.35;;
39218;SDS011;24934;52.752;6.964;2023-08-24T02:48:55;21.23;;;19.10;;
39218;SDS011;24934;52.752;6.964;2023-08-24T02:51:21;21.40;;;19.27;;
39218;SDS011;24934;52.752;6.964;2023-08-24T02:53:48;21.98;;;19.65;;
39218;SDS011;24934;52.752;6.964;2023-08-24T02:56:16;21.27;;;18.95;;
39218;SDS011;24934;52.752;6.964;2023-08-24T02:58:44;21.38;;;19.10;;
39218;SDS011;24934;52.752;6.964;2023-08-24T03:01:10;23.10;;;20.70;;
39218;SDS011;24934;52.752;6.964;2023-08-24T03:03:36;23.02;;;20.15;;
39218;SDS011;24934;52.752;6.964;2023-08-24T03:06:03;21.70;;;19.58;;
39218;SDS011;24934;52.752;6.964;2023-08-24T03:08:30;21.77;;;19.58;;
39218;SDS011;24934;52.752;6.964;2023-08-24T03:10:58;22.20;;;19.38;;
39218;SDS011;24934;52.752;6.964;2023-08-24T03:13:24;22.90;;;19.85;;
39218;SDS011;24934;52.752;6.964;2023-08-24T03:15:50;22.92;;;19.95;;
39218;SDS011;24934;52.752;6.964;2023-08-24T03:18:17;21.30;;;19.17;;
39218;SDS011;24934;52.752;6.964;2023-08-24T03:20:43;22.38;;;20.02;;
39218;SDS011;24934;52.752;6.964;2023-08-24T03:23:10;23.83;;;21.52;;
39218;SDS011;24934;52.752;6.964;2023-08-24T03:25:36;22.58;;;20.17;;
39218;SDS011;24934;52.752;6.964;2023-08-24T03:28:03;23.67;;;19.38;;
39218;SDS011;24934;52.752;6.964;2023-08-24T03:30:29;23.73;;;21.23;;
39218;SDS011;24934;52.752;6.964;2023-08-24T03:32:56;22.88;;;20.75;;
39218;SDS011;24934;52.752;6.964;2023-08-24T03:35:22;21.65;;;19.55;;
39218;SDS011;24934;52.752;6.964;2023-08-24T03:37:51;21.50;;;19.50;;
39218;SDS011;24934;52.752;6.964;2023-08-24T03:40:17;22.45;;;19.52;;
39218;SDS011;24934;52.752;6.964;2023-08-24T03:42:43;22.02;;;19.83;;
39218;SDS011;24934;52.752;6.964;2023-08-24T03:45:09;21.20;;;19.00;;
39218;SDS011;24934;52.752;6.964;2023-08-24T03:47:35;23.27;;;20.83;;
39218;SDS011;24934;52.752;6.964;2023-08-24T03:50:00;22.60;;;19.00;;
39218;SDS011;24934;52.752;6.964;2023-08-24T03:52:26;24.42;;;20.55;;
39218;SDS011;24934;52.752;6.964;2023-08-24T03:54:52;22.33;;;19.92;;
39218;SDS011;24934;52.752;6.964;2023-08-24T03:57:18;23.27;;;20.80;;
39218;SDS011;24934;52.752;6.964;2023-08-24T03:59:43;28.17;;;22.38;;
39218;SDS011;24934;52.752;6.964;2023-08-24T04:02:09;24.08;;;21.25;;
39218;SDS011;24934;52.752;6.964;2023-08-24T04:04:35;23.40;;;20.75;;
39218;SDS011;24934;52.752;6.964;2023-08-24T04:07:00;24.10;;;21.45;;
39218;SDS011;24934;52.752;6.964;2023-08-24T04:09:27;24.17;;;21.55;;
39218;SDS011;24934;52.752;6.964;2023-08-24T04:11:53;24.17;;;21.92;;
39218;SDS011;24934;52.752;6.964;2023-08-24T04:14:19;23.40;;;20.98;;
39218;SDS011;24934;52.752;6.964;2023-08-24T04:16:45;28.80;;;21.98;;
39218;SDS011;24934;52.752;6.964;2023-08-24T04:19:10;23.92;;;21.42;;
39218;SDS011;24934;52.752;6.964;2023-08-24T04:21:36;23.50;;;21.13;;
39218;SDS011;24934;52.752;6.964;2023-08-24T04:24:02;25.30;;;21.00;;
39218;SDS011;24934;52.752;6.964;2023-08-24T04:26:27;27.58;;;20.10;;
39218;SDS011;24934;52.752;6.964;2023-08-24T04:28:53;23.65;;;19.88;;
39218;SDS011;24934;52.752;6.964;2023-08-24T04:31:19;21.95;;;19.75;;
39218;SDS011;24934;52.752;6.964;2023-08-24T04:33:45;23.58;;;20.15;;
39218;SDS011;24934;52.752;6.964;2023-08-24T04:36:10;25.48;;;21.17;;
39218;SDS011;24934;52.752;6.964;2023-08-24T04:38:36;24.20;;;21.02;;
39218;SDS011;24934;52.752;6.964;2023-08-24T04:41:02;28.73;;;20.45;;
39218;SDS011;24934;52.752;6.964;2023-08-24T04:43:32;28.00;;;20.27;;
39218;SDS011;24934;52.752;6.964;2023-08-24T04:46:01;28.75;;;20.77;;
39218;SDS011;24934;52.752;6.964;2023-08-24T04:48:27;24.33;;;20.23;;
39218;SDS011;24934;52.752;6.964;2023-08-24T04:50:57;22.33;;;18.65;;
39218;SDS011;24934;52.752;6.964;2023-08-24T04:53:23;21.88;;;18.77;;
39218;SDS011;24934;52.752;6.964;2023-08-24T04:55:49;22.27;;;19.50;;
39218;SDS011;24934;52.752;6.964;2023-08-24T04:58:15;23.85;;;19.35;;
39218;SDS011;24934;52.752;6.964;2023-08-24T05:00:42;22.45;;;19.60;;
39218;SDS011;24934;52.752;6.964;2023-08-24T05:03:08;22.60;;;19.75;;
39218;SDS011;24934;52.752;6.964;2023-08-24T05:05:34;23.23;;;20.83;;
39218;SDS011;24934;52.752;6.964;2023-08-24T05:08:01;27.05;;;19.50;;
39218;SDS011;24934;52.752;6.964;2023-08-24T05:10:32;21.92;;;19.05;;
39218;SDS011;24934;52.752;6.964;2023-08-24T05:12:58;25.35;;;20.23;;
39218;SDS011;24934;52.752;6.964;2023-08-24T05:15:24;24.45;;;19.60;;
39218;SDS011;24934;52.752;6.964;2023-08-24T05:17:52;22.83;;;19.25;;
39218;SDS011;24934;52.752;6.964;2023-08-24T05:20:24;22.38;;;18.63;;
39218;SDS011;24934;52.752;6.964;2023-08-24T05:22:50;22.08;;;18.95;;
39218;SDS011;24934;52.752;6.964;2023-08-24T05:25:16;19.95;;;17.25;;
39218;SDS011;24934;52.752;6.964;2023-08-24T05:27:42;21.38;;;16.48;;
39218;SDS011;24934;52.752;6.964;2023-08-24T05:30:11;17.00;;;14.20;;
39218;SDS011;24934;52.752;6.964;2023-08-24T05:32:37;14.07;;;12.60;;
39218;SDS011;24934;52.752;6.964;2023-08-24T05:35:04;12.50;;;11.27;;
39218;SDS011;24934;52.752;6.964;2023-08-24T05:37:30;13.52;;;11.60;;
39218;SDS011;24934;52.752;6.964;2023-08-24T05:39:56;14.50;;;12.77;;
39218;SDS011;24934;52.752;6.964;2023-08-24T05:42:22;13.38;;;11.90;;
39218;SDS011;24934;52.752;6.964;2023-08-24T05:44:47;12.73;;;11.52;;
39218;SDS011;24934;52.752;6.964;2023-08-24T05:47:13;13.40;;;12.10;;
39218;SDS011;24934;52.752;6.964;2023-08-24T05:49:38;12.93;;;11.57;;
39218;SDS011;24934;52.752;6.964;2023-08-24T05:52:04;17.63;;;11.52;;
39218;SDS011;24934;52.752;6.964;2023-08-24T05:54:30;14.57;;;12.18;;
39218;SDS011;24934;52.752;6.964;2023-08-24T05:56:55;13.52;;;11.18;;
39218;SDS011;24934;52.752;6.964;2023-08-24T05:59:25;13.30;;;11.57;;
39218;SDS011;24934;52.752;6.964;2023-08-24T06:01:51;12.38;;;11.25;;
39218;SDS011;24934;52.752;6.964;2023-08-24T06:04:17;12.02;;;10.70;;
39218;SDS011;24934;52.752;6.964;2023-08-24T06:06:43;18.63;;;12.63;;
39218;SDS011;24934;52.752;6.964;2023-08-24T06:09:08;18.55;;;12.73;;
39218;SDS011;24934;52.752;6.964;2023-08-24T06:11:35;14.32;;;12.82;;
39218;SDS011;24934;52.752;6.964;2023-08-24T06:14:00;19.80;;;13.45;;
39218;SDS011;24934;52.752;6.964;2023-08-24T06:16:27;15.32;;;13.27;;
39218;SDS011;24934;52.752;6.964;2023-08-24T06:18:53;16.30;;;13.80;;
39218;SDS011;24934;52.752;6.964;2023-08-24T06:21:19;19.42;;;15.48;;
39218;SDS011;24934;52.752;6.964;2023-08-24T06:23:44;17.48;;;13.68;;
39218;SDS011;24934;52.752;6.964;2023-08-24T06:26:12;18.48;;;15.68;;
39218;SDS011;24934;52.752;6.964;2023-08-24T06:28:38;18.92;;;15.23;;
39218;SDS011;24934;52.752;6.964;2023-08-24T06:31:04;23.45;;;16.38;;
39218;SDS011;24934;52.752;6.964;2023-08-24T06:33:33;22.38;;;17.13;;
39218;SDS011;24934;52.752;6.964;2023-08-24T06:35:59;21.00;;;18.38;;
39218;SDS011;24934;52.752;6.964;2023-08-24T06:38:26;21.48;;;18.20;;
39218;SDS011;24934;52.752;6.964;2023-08-24T06:40:51;24.77;;;19.00;;
39218;SDS011;24934;52.752;6.964;2023-08-24T06:43:17;24.92;;;19.02;;
39218;SDS011;24934;52.752;6.964;2023-08-24T06:45:45;22.73;;;18.25;;
39218;SDS011;24934;52.752;6.964;2023-08-24T06:48:11;21.75;;;17.48;;
39218;SDS011;24934;52.752;6.964;2023-08-24T06:50:37;20.92;;;18.08;;
39218;SDS011;24934;52.752;6.964;2023-08-24T06:53:05;20.75;;;17.48;;
39218;SDS011;24934;52.752;6.964;2023-08-24T06:55:31;21.08;;;16.95;;
39218;SDS011;24934;52.752;6.964;2023-08-24T06:57:57;20.33;;;16.73;;
39218;SDS011;24934;52.752;6.964;2023-08-24T07:00:30;18.83;;;16.17;;
39218;SDS011;24934;52.752;6.964;2023-08-24T07:02:56;22.20;;;15.90;;
39218;SDS011;24934;52.752;6.964;2023-08-24T07:05:24;20.13;;;16.05;;
39218;SDS011;24934;52.752;6.964;2023-08-24T07:07:51;20.33;;;15.43;;
39218;SDS011;24934;52.752;6.964;2023-08-24T07:10:17;21.02;;;16.15;;
39218;SDS011;24934;52.752;6.964;2023-08-24T07:12:43;18.42;;;16.48;;
39218;SDS011;24934;52.752;6.964;2023-08-24T07:15:10;19.52;;;16.00;;
39218;SDS011;24934;52.752;6.964;2023-08-24T07:17:37;20.77;;;16.02;;
39218;SDS011;24934;52.752;6.964;2023-08-24T07:20:03;23.25;;;16.45;;
39218;SDS011;24934;52.752;6.964;2023-08-24T07:22:30;22.23;;;17.60;;
39218;SDS011;24934;52.752;6.964;2023-08-24T07:24:56;19.42;;;17.08;;
39218;SDS011;24934;52.752;6.964;2023-08-24T07:27:23;21.98;;;17.05;;
39218;SDS011;24934;52.752;6.964;2023-08-24T07:29:49;19.60;;;16.77;;
39218;SDS011;24934;52.752;6.964;2023-08-24T07:32:15;20.63;;;16.67;;
39218;SDS011;24934;52.752;6.964;2023-08-24T07:34:41;22.02;;;16.95;;
39218;SDS011;24934;52.752;6.964;2023-08-24T07:37:06;19.60;;;15.95;;
39218;SDS011;24934;52.752;6.964;2023-08-24T07:39:32;19.73;;;16.17;;
39218;SDS011;24934;52.752;6.964;2023-08-24T07:41:58;17.25;;;15.45;;
39218;SDS011;24934;52.752;6.964;2023-08-24T07:44:24;18.90;;;15.70;;
39218;SDS011;24934;52.752;6.964;2023-08-24T07:46:50;19.27;;;15.15;;
39218;SDS011;24934;52.752;6.964;2023-08-24T07:49:15;18.17;;;14.57;;
39218;SDS011;24934;52.752;6.964;2023-08-24T07:51:44;16.35;;;14.25;;
39218;SDS011;24934;52.752;6.964;2023-08-24T07:54:12;16.30;;;14.65;;
39218;SDS011;24934;52.752;6.964;2023-08-24T07:56:38;15.40;;;13.77;;
39218;SDS011;24934;52.752;6.964;2023-08-24T07:59:04;17.15;;;14.13;;
39218;SDS011;24934;52.752;6.964;2023-08-24T08:01:30;15.07;;;13.50;;
39218;SDS011;24934;52.752;6.964;2023-08-24T08:03:55;15.05;;;12.63;;
39218;SDS011;24934;52.752;6.964;2023-08-24T08:06:21;15.73;;;13.32;;
39218;SDS011;24934;52.752;6.964;2023-08-24T08:08:49;14.90;;;13.40;;
39218;SDS011;24934;52.752;6.964;2023-08-24T08:11:16;16.55;;;12.93;;
39218;SDS011;24934;52.752;6.964;2023-08-24T08:13:44;15.48;;;13.93;;
39218;SDS011;24934;52.752;6.964;2023-08-24T08:16:10;15.57;;;13.05;;
39218;SDS011;24934;52.752;6.964;2023-08-24T08:18:36;14.57;;;13.18;;
39218;SDS011;24934;52.752;6.964;2023-08-24T08:21:10;14.75;;;13.32;;
39218;SDS011;24934;52.752;6.964;2023-08-24T08:23:39;14.90;;;13.30;;
39218;SDS011;24934;52.752;6.964;2023-08-24T08:26:05;15.73;;;13.93;;
39218;SDS011;24934;52.752;6.964;2023-08-24T08:28:33;19.80;;;14.20;;
39218;SDS011;24934;52.752;6.964;2023-08-24T08:30:59;16.23;;;14.60;;
39218;SDS011;24934;52.752;6.964;2023-08-24T08:33:25;15.00;;;13.50;;
39218;SDS011;24934;52.752;6.964;2023-08-24T08:35:54;15.90;;;14.05;;
39218;SDS011;24934;52.752;6.964;2023-08-24T08:38:20;14.05;;;12.65;;
39218;SDS011;24934;52.752;6.964;2023-08-24T08:40:50;13.75;;;12.38;;
39218;SDS011;24934;52.752;6.964;2023-08-24T08:43:23;13.63;;;12.13;;
39218;SDS011;24934;52.752;6.964;2023-08-24T08:45:51;14.70;;;13.18;;
39218;SDS011;24934;52.752;6.964;2023-08-24T08:48:21;18.50;;;14.68;;
39218;SDS011;24934;52.752;6.964;2023-08-24T08:50:51;16.50;;;14.65;;
39218;SDS011;24934;52.752;6.964;2023-08-24T08:53:21;15.80;;;14.30;;
39218;SDS011;24934;52.752;6.964;2023-08-24T08:55:48;17.95;;;14.30;;
39218;SDS011;24934;52.752;6.964;2023-08-24T08:58:16;15.57;;;14.00;;
39218;SDS011;24934;52.752;6.964;2023-08-24T09:00:44;15.05;;;13.68;;
39218;SDS011;24934;52.752;6.964;2023-08-24T09:03:11;14.45;;;13.25;;
39218;SDS011;24934;52.752;6.964;2023-08-24T09:05:38;15.18;;;13.68;;
39218;SDS011;24934;52.752;6.964;2023-08-24T09:08:04;14.93;;;13.43;;
39218;SDS011;24934;52.752;6.964;2023-08-24T09:10:31;15.35;;;13.65;;
39218;SDS011;24934;52.752;6.964;2023-08-24T09:12:57;15.52;;;13.45;;
39218;SDS011;24934;52.752;6.964;2023-08-24T09:15:26;14.30;;;12.80;;
39218;SDS011;24934;52.752;6.964;2023-08-24T09:17:53;14.95;;;13.52;;
39218;SDS011;24934;52.752;6.964;2023-08-24T09:20:19;15.68;;;14.13;;
39218;SDS011;24934;52.752;6.964;2023-08-24T09:22:45;15.43;;;13.90;;
39218;SDS011;24934;52.752;6.964;2023-08-24T09:25:11;15.63;;;14.13;;
39218;SDS011;24934;52.752;6.964;2023-08-24T09:27:37;15.80;;;12.52;;
39218;SDS011;24934;52.752;6.964;2023-08-24T09:30:02;13.18;;;11.98;;
39218;SDS011;24934;52.752;6.964;2023-08-24T09:32:31;14.13;;;12.82;;
39218;SDS011;24934;52.752;6.964;2023-08-24T09:35:03;14.93;;;13.60;;
39218;SDS011;24934;52.752;6.964;2023-08-24T09:37:34;14.98;;;13.57;;
39218;SDS011;24934;52.752;6.964;2023-08-24T09:40:04;15.23;;;13.65;;
39218;SDS011;24934;52.752;6.964;2023-08-24T09:42:37;15.85;;;14.30;;
39218;SDS011;24934;52.752;6.964;2023-08-24T09:45:04;15.15;;;13.63;;
39218;SDS011;24934;52.752;6.964;2023-08-24T09:47:31;15.68;;;14.00;;
39218;SDS011;24934;52.752;6.964;2023-08-24T09:49:57;14.65;;;13.20;;
39218;SDS011;24934;52.752;6.964;2023-08-24T09:52:22;15.95;;;14.32;;
39218;SDS011;24934;52.752;6.964;2023-08-24T09:54:54;15.73;;;13.27;;
39218;SDS011;24934;52.752;6.964;2023-08-24T09:57:20;14.60;;;13.18;;
39218;SDS011;24934;52.752;6.964;2023-08-24T09:59:46;14.05;;;12.65;;
39218;SDS011;24934;52.752;6.964;2023-08-24T10:02:16;13.95;;;12.55;;
39218;SDS011;24934;52.752;6.964;2023-08-24T10:04:45;13.90;;;12.45;;
39218;SDS011;24934;52.752;6.964;2023-08-24T10:07:14;17.25;;;12.50;;
39218;SDS011;24934;52.752;6.964;2023-08-24T10:09:58;14.75;;;13.25;;
39218;SDS011;24934;52.752;6.964;2023-08-24T10:12:31;19.45;;;12.88;;
39218;SDS011;24934;52.752;6.964;2023-08-24T10:15:09;14.30;;;12.80;;
39218;SDS011;24934;52.752;6.964;2023-08-24T10:17:37;14.25;;;12.75;;
39218;SDS011;24934;52.752;6.964;2023-08-24T10:20:05;14.75;;;13.35;;
39218;SDS011;24934;52.752;6.964;2023-08-24T10:22:35;15.57;;;13.73;;
39218;SDS011;24934;52.752;6.964;2023-08-24T10:25:02;14.80;;;13.25;;
39218;SDS011;24934;52.752;6.964;2023-08-24T10:27:28;14.27;;;12.77;;
39218;SDS011;24934;52.752;6.964;2023-08-24T10:29:55;14.15;;;12.65;;
39218;SDS011;24934;52.752;6.964;2023-08-24T10:32:21;15.93;;;12.07;;
39218;SDS011;24934;52.752;6.964;2023-08-24T10:34:48;14.95;;;13.02;;
39218;SDS011;24934;52.752;6.964;2023-08-24T10:37:15;14.77;;;12.55;;
39218;SDS011;24934;52.752;6.964;2023-08-24T10:39:44;14.45;;;12.93;;
39218;SDS011;24934;52.752;6.964;2023-08-24T10:42:11;14.27;;;12.88;;
39218;SDS011;24934;52.752;6.964;2023-08-24T10:44:38;14.05;;;12.02;;
39218;SDS011;24934;52.752;6.964;2023-08-24T10:47:12;14.00;;;12.50;;
39218;SDS011;24934;52.752;6.964;2023-08-24T10:49:44;18.15;;;13.82;;
39218;SDS011;24934;52.752;6.964;2023-08-24T10:52:42;15.73;;;13.35;;
39218;SDS011;24934;52.752;6.964;2023-08-24T10:55:26;15.88;;;13.23;;
39218;SDS011;24934;52.752;6.964;2023-08-24T10:57:56;14.35;;;12.95;;
39218;SDS011;24934;52.752;6.964;2023-08-24T11:00:25;12.75;;;11.63;;
39218;SDS011;24934;52.752;6.964;2023-08-24T11:02:55;13.35;;;12.05;;
39218;SDS011;24934;52.752;6.964;2023-08-24T11:05:29;14.25;;;12.63;;
39218;SDS011;24934;52.752;6.964;2023-08-24T11:10:25;15.27;;;11.88;;
39218;SDS011;24934;52.752;6.964;2023-08-24T11:13:05;15.45;;;11.30;;
39218;SDS011;24934;52.752;6.964;2023-08-24T11:15:39;19.60;;;12.25;;
39218;SDS011;24934;52.752;6.964;2023-08-24T11:20:44;13.50;;;11.68;;
39218;SDS011;24934;52.752;6.964;2023-08-24T11:23:11;12.85;;;11.55;;
39218;SDS011;24934;52.752;6.964;2023-08-24T11:25:42;13.98;;;11.38;;
39218;SDS011;24934;52.752;6.964;2023-08-24T11:28:08;12.07;;;10.82;;
39218;SDS011;24934;52.752;6.964;2023-08-24T11:30:34;12.57;;;10.40;;
39218;SDS011;24934;52.752;6.964;2023-08-24T11:33:00;12.90;;;10.60;;
39218;SDS011;24934;52.752;6.964;2023-08-24T11:35:27;10.57;;;9.60;;
39218;SDS011;24934;52.752;6.964;2023-08-24T11:37:53;10.25;;;9.13;;
39218;SDS011;24934;52.752;6.964;2023-08-24T11:40:23;11.48;;;10.38;;
39218;SDS011;24934;52.752;6.964;2023-08-24T11:42:57;10.93;;;9.82;;
39218;SDS011;24934;52.752;6.964;2023-08-24T11:45:23;13.65;;;10.00;;
39218;SDS011;24934;52.752;6.964;2023-08-24T11:47:57;12.35;;;10.65;;
39218;SDS011;24934;52.752;6.964;2023-08-24T11:50:24;11.65;;;10.45;;
39218;SDS011;24934;52.752;6.964;2023-08-24T11:52:50;13.60;;;9.68;;
39218;SDS011;24934;52.752;6.964;2023-08-24T11:55:18;11.73;;;9.80;;
39218;SDS011;24934;52.752;6.964;2023-08-24T11:57:45;11.05;;;10.07;;
39218;SDS011;24934;52.752;6.964;2023-08-24T12:00:11;11.65;;;10.45;;
39218;SDS011;24934;52.752;6.964;2023-08-24T12:02:41;13.02;;;9.80;;
39218;SDS011;24934;52.752;6.964;2023-08-24T12:05:07;10.13;;;9.18;;
39218;SDS011;24934;52.752;6.964;2023-08-24T12:07:33;12.13;;;10.10;;
39218;SDS011;24934;52.752;6.964;2023-08-24T12:10:02;13.63;;;10.60;;
39218;SDS011;24934;52.752;6.964;2023-08-24T12:12:30;13.77;;;11.15;;
39218;SDS011;24934;52.752;6.964;2023-08-24T12:14:55;12.68;;;11.38;;
39218;SDS011;24934;52.752;6.964;2023-08-24T12:17:24;12.80;;;10.77;;
39218;SDS011;24934;52.752;6.964;2023-08-24T12:19:59;12.55;;;11.35;;
39218;SDS011;24934;52.752;6.964;2023-08-24T12:22:26;12.43;;;11.10;;
39218;SDS011;24934;52.752;6.964;2023-08-24T12:24:51;14.18;;;11.45;;
39218;SDS011;24934;52.752;6.964;2023-08-24T12:27:23;14.80;;;11.77;;
39218;SDS011;24934;52.752;6.964;2023-08-24T12:29:51;12.63;;;11.43;;
39218;SDS011;24934;52.752;6.964;2023-08-24T12:32:17;12.27;;;10.93;;
39218;SDS011;24934;52.752;6.964;2023-08-24T12:34:48;12.65;;;10.90;;
39218;SDS011;24934;52.752;6.964;2023-08-24T12:37:14;13.00;;;10.95;;
39218;SDS011;24934;52.752;6.964;2023-08-24T12:39:39;11.63;;;9.80;;
39218;SDS011;24934;52.752;6.964;2023-08-24T12:42:05;17.83;;;13.00;;
39218;SDS011;24934;52.752;6.964;2023-08-24T12:44:32;13.20;;;12.00;;
39218;SDS011;24934;52.752;6.964;2023-08-24T12:47:01;13.43;;;11.30;;
39218;SDS011;24934;52.752;6.964;2023-08-24T12:49:27;15.00;;;13.20;;
39218;SDS011;24934;52.752;6.964;2023-08-24T12:51:53;15.30;;;13.80;;
39218;SDS011;24934;52.752;6.964;2023-08-24T12:54:19;14.40;;;12.93;;
39218;SDS011;24934;52.752;6.964;2023-08-24T12:56:44;12.70;;;11.32;;
39218;SDS011;24934;52.752;6.964;2023-08-24T12:59:10;12.70;;;11.48;;
39218;SDS011;24934;52.752;6.964;2023-08-24T13:01:37;13.18;;;11.80;;
39218;SDS011;24934;52.752;6.964;2023-08-24T13:04:03;18.25;;;12.02;;
39218;SDS011;24934;52.752;6.964;2023-08-24T13:06:29;13.27;;;11.40;;
39218;SDS011;24934;52.752;6.964;2023-08-24T13:08:55;11.25;;;9.85;;
39218;SDS011;24934;52.752;6.964;2023-08-24T13:11:21;10.95;;;9.85;;
39218;SDS011;24934;52.752;6.964;2023-08-24T13:13:47;13.75;;;10.02;;
39218;SDS011;24934;52.752;6.964;2023-08-24T13:16:13;11.70;;;9.50;;
39218;SDS011;24934;52.752;6.964;2023-08-24T13:18:39;14.00;;;9.57;;
39218;SDS011;24934;52.752;6.964;2023-08-24T13:21:07;11.23;;;10.10;;
39218;SDS011;24934;52.752;6.964;2023-08-24T13:23:33;11.43;;;10.27;;
39218;SDS011;24934;52.752;6.964;2023-08-24T13:25:59;13.23;;;9.90;;
39218;SDS011;24934;52.752;6.964;2023-08-24T13:28:25;10.77;;;9.68;;
39218;SDS011;24934;52.752;6.964;2023-08-24T13:30:51;11.77;;;10.57;;
39218;SDS011;24934;52.752;6.964;2023-08-24T13:33:17;13.75;;;10.55;;
39218;SDS011;24934;52.752;6.964;2023-08-24T13:35:44;10.95;;;9.98;;
39218;SDS011;24934;52.752;6.964;2023-08-24T13:38:10;12.85;;;10.05;;
39218;SDS011;24934;52.752;6.964;2023-08-24T13:40:36;10.57;;;9.57;;
39218;SDS011;24934;52.752;6.964;2023-08-24T13:43:02;10.73;;;9.57;;
39218;SDS011;24934;52.752;6.964;2023-08-24T13:45:30;11.82;;;9.43;;
39218;SDS011;24934;52.752;6.964;2023-08-24T13:47:56;12.88;;;9.95;;
39218;SDS011;24934;52.752;6.964;2023-08-24T13:50:22;11.30;;;9.57;;
39218;SDS011;24934;52.752;6.964;2023-08-24T13:52:48;12.93;;;10.45;;
39218;SDS011;24934;52.752;6.964;2023-08-24T13:55:14;10.82;;;9.73;;
39218;SDS011;24934;52.752;6.964;2023-08-24T13:57:41;12.80;;;10.13;;
39218;SDS011;24934;52.752;6.964;2023-08-24T14:00:08;11.27;;;10.05;;
39218;SDS011;24934;52.752;6.964;2023-08-24T14:02:34;11.77;;;10.23;;
39218;SDS011;24934;52.752;6.964;2023-08-24T14:04:59;11.40;;;10.13;;
39218;SDS011;24934;52.752;6.964;2023-08-24T14:07:25;12.50;;;10.00;;
39218;SDS011;24934;52.752;6.964;2023-08-24T14:09:51;11.60;;;10.30;;
39218;SDS011;24934;52.752;6.964;2023-08-24T14:12:17;12.55;;;10.05;;
39218;SDS011;24934;52.752;6.964;2023-08-24T14:14:42;11.35;;;10.05;;
39218;SDS011;24934;52.752;6.964;2023-08-24T14:17:08;10.40;;;9.43;;
39218;SDS011;24934;52.752;6.964;2023-08-24T14:19:34;11.43;;;9.93;;
39218;SDS011;24934;52.752;6.964;2023-08-24T14:21:59;10.68;;;9.57;;
39218;SDS011;24934;52.752;6.964;2023-08-24T14:24:25;14.45;;;9.13;;
39218;SDS011;24934;52.752;6.964;2023-08-24T14:26:51;11.82;;;9.52;;
39218;SDS011;24934;52.752;6.964;2023-08-24T14:29:17;10.35;;;9.35;;
39218;SDS011;24934;52.752;6.964;2023-08-24T14:31:43;11.45;;;8.75;;
39218;SDS011;24934;52.752;6.964;2023-08-24T14:34:08;11.63;;;9.13;;
39218;SDS011;24934;52.752;6.964;2023-08-24T14:36:34;10.13;;;9.23;;